createdAt,value
2022-10-12T00:00:39.555Z,3.30
2022-10-12T00:03:07.275Z,2.73
2022-10-12T00:05:35.023Z,3.60
2022-10-12T00:08:02.777Z,3.50
2022-10-12T00:10:30.484Z,3.20
2022-10-12T00:12:59.818Z,3.77
2022-10-12T00:15:27.632Z,3.07
2022-10-12T00:17:55.396Z,4.30
2022-10-12T00:20:23.161Z,3.33
2022-10-12T00:22:50.918Z,3.00
2022-10-12T00:25:18.691Z,3.90
2022-10-12T00:27:46.859Z,2.80
2022-10-12T00:30:16.170Z,3.70
2022-10-12T00:32:44.058Z,3.80
2022-10-12T00:35:11.737Z,2.97
2022-10-12T00:37:40.106Z,3.30
2022-10-12T00:40:09.074Z,3.63
2022-10-12T00:42:36.770Z,3.27
2022-10-12T00:45:05.133Z,3.43
2022-10-12T00:47:37.046Z,3.40
2022-10-12T00:50:10.812Z,2.93
2022-10-12T00:52:43.433Z,2.87
2022-10-12T00:55:13.715Z,3.30
2022-10-12T00:57:46.727Z,3.00
2022-10-12T01:00:15.796Z,3.27
2022-10-12T01:02:46.207Z,3.57
2022-10-12T01:05:14.817Z,3.70
2022-10-12T01:07:42.813Z,3.83
2022-10-12T01:10:10.960Z,3.40
2022-10-12T01:12:40.990Z,3.23
2022-10-12T01:15:09.810Z,3.67
2022-10-12T01:17:45.762Z,3.13
2022-10-12T01:20:35.852Z,3.20
2022-10-12T01:23:27.874Z,3.20
2022-10-12T01:26:13.235Z,2.77
2022-10-12T01:28:50.693Z,3.40
2022-10-12T01:31:32.601Z,3.43
2022-10-12T01:34:05.784Z,4.07
2022-10-12T01:36:37.959Z,3.37
2022-10-12T01:39:13.450Z,3.53
2022-10-12T01:41:47.952Z,3.93
2022-10-12T01:44:21.566Z,3.37
2022-10-12T01:46:53.187Z,3.53
2022-10-12T01:49:25.897Z,3.70
2022-10-12T01:52:28.557Z,3.37
2022-10-12T01:55:15.457Z,3.33
2022-10-12T01:57:53.905Z,3.03
2022-10-12T02:00:21.937Z,3.50
2022-10-12T02:02:59.365Z,3.27
2022-10-12T02:05:36.820Z,3.47
2022-10-12T02:08:10.654Z,3.20
2022-10-12T02:10:41.775Z,3.20
2022-10-12T02:13:12.783Z,3.40
2022-10-12T02:15:42.707Z,2.80
2022-10-12T02:18:15.479Z,3.23
2022-10-12T02:20:43.692Z,3.60
2022-10-12T02:23:12.381Z,2.93
2022-10-12T02:25:40.530Z,3.53
2022-10-12T02:28:10.842Z,3.30
2022-10-12T02:30:44.424Z,3.73
2022-10-12T02:33:18.270Z,3.10
2022-10-12T02:35:52.139Z,3.63
2022-10-12T02:38:26.538Z,3.17
2022-10-12T02:40:58.680Z,3.40
2022-10-12T02:43:30.472Z,3.27
2022-10-12T02:46:01.057Z,2.97
2022-10-12T02:48:30.846Z,3.67
2022-10-12T02:51:00.087Z,3.40
2022-10-12T02:53:30.740Z,3.43
2022-10-12T02:56:02.757Z,3.73
2022-10-12T02:58:30.501Z,2.80
2022-10-12T03:00:58.365Z,3.17
2022-10-12T03:03:26.714Z,3.27
2022-10-12T03:05:55.922Z,3.20
2022-10-12T03:08:23.799Z,4.10
2022-10-12T03:10:51.524Z,3.60
2022-10-12T03:13:19.522Z,3.27
2022-10-12T03:15:47.221Z,3.47
2022-10-12T03:18:14.953Z,3.50
2022-10-12T03:20:42.641Z,3.00
2022-10-12T03:23:11.716Z,2.90
2022-10-12T03:25:39.390Z,3.13
2022-10-12T03:28:07.226Z,3.37
2022-10-12T03:30:34.995Z,2.93
2022-10-12T03:33:02.691Z,3.27
2022-10-12T03:35:30.796Z,3.30
2022-10-12T03:37:58.529Z,3.27
2022-10-12T03:40:27.639Z,4.10
2022-10-12T03:42:55.387Z,3.20
2022-10-12T03:45:23.106Z,2.67
2022-10-12T03:47:51.278Z,2.80
2022-10-12T03:50:19.357Z,2.90
2022-10-12T03:52:47.110Z,3.47
2022-10-12T03:55:15.559Z,3.33
2022-10-12T03:57:45.342Z,2.73
2022-10-12T04:00:14.514Z,3.47
2022-10-12T04:02:42.243Z,2.97
2022-10-12T04:05:10.518Z,2.73
2022-10-12T04:07:38.713Z,3.63
2022-10-12T04:10:08.258Z,3.30
2022-10-12T04:12:36.027Z,3.13
2022-10-12T04:15:05.688Z,2.70
2022-10-12T04:17:33.557Z,3.10
2022-10-12T04:20:01.250Z,3.00
2022-10-12T04:22:29.004Z,3.40
2022-10-12T04:24:56.748Z,3.37
2022-10-12T04:27:24.459Z,2.70
2022-10-12T04:29:52.354Z,3.90
2022-10-12T04:32:21.547Z,3.27
2022-10-12T04:34:49.382Z,3.43
2022-10-12T04:37:17.498Z,3.43
2022-10-12T04:39:45.252Z,2.43
2022-10-12T04:42:12.972Z,3.17
2022-10-12T04:44:40.683Z,3.10
2022-10-12T04:47:08.853Z,2.50
2022-10-12T04:49:37.964Z,2.63
2022-10-12T04:52:05.921Z,3.30
2022-10-12T04:54:33.849Z,3.47
2022-10-12T04:57:01.669Z,3.37
2022-10-12T04:59:29.403Z,3.23
2022-10-12T05:01:57.213Z,3.23
2022-10-12T05:04:25.165Z,3.30
2022-10-12T05:06:54.690Z,2.77
2022-10-12T05:09:22.469Z,2.57
2022-10-12T05:11:50.175Z,2.87
2022-10-12T05:14:17.901Z,3.30
2022-10-12T05:16:45.662Z,2.93
2022-10-12T05:19:13.460Z,2.90
2022-10-12T05:21:42.308Z,2.70
2022-10-12T05:24:12.221Z,3.43
2022-10-12T05:26:40.105Z,3.07
2022-10-12T05:29:07.962Z,3.47
2022-10-12T05:31:35.715Z,3.57
2022-10-12T05:34:03.483Z,3.40
2022-10-12T05:36:31.216Z,3.13
2022-10-12T05:38:58.935Z,3.63
2022-10-12T05:41:28.005Z,3.30
2022-10-12T05:43:55.750Z,2.90
2022-10-12T05:46:23.449Z,3.40
2022-10-12T05:48:51.201Z,2.70
2022-10-12T05:51:19.086Z,3.30
2022-10-12T05:53:46.772Z,3.63
2022-10-12T05:56:14.662Z,3.33
2022-10-12T05:58:43.716Z,3.17
2022-10-12T06:01:13.505Z,3.03
2022-10-12T06:03:41.765Z,3.30
2022-10-12T06:06:09.571Z,3.07
2022-10-12T06:08:37.322Z,3.23
2022-10-12T06:11:05.555Z,3.10
2022-10-12T06:13:33.442Z,2.97
2022-10-12T06:16:02.527Z,3.53
2022-10-12T06:18:30.359Z,3.30
2022-10-12T06:23:46.219Z,3.07
2022-10-12T06:26:14.201Z,3.27
2022-10-12T06:28:41.980Z,3.67
2022-10-12T06:31:11.613Z,3.47
2022-10-12T06:33:39.370Z,3.20
2022-10-12T06:36:07.394Z,3.57
2022-10-12T06:38:35.190Z,3.93
2022-10-12T06:41:02.913Z,3.23
2022-10-12T06:43:30.733Z,2.77
2022-10-12T06:46:01.543Z,3.47
2022-10-12T06:48:31.191Z,3.20
2022-10-12T06:50:59.003Z,3.20
2022-10-12T06:53:28.683Z,3.47
2022-10-12T06:55:56.420Z,3.70
2022-10-12T06:58:24.260Z,3.63
2022-10-12T07:00:52.411Z,3.83
2022-10-12T07:03:20.403Z,3.63
2022-10-12T07:05:49.522Z,3.07
2022-10-12T07:08:17.747Z,3.40
2022-10-12T07:10:45.520Z,3.77
2022-10-12T07:13:13.293Z,4.43
2022-10-12T07:15:41.026Z,4.93
2022-10-12T07:18:09.022Z,4.77
2022-10-12T07:20:39.953Z,5.30
2022-10-12T07:23:09.182Z,4.23
2022-10-12T07:25:36.902Z,4.20
2022-10-12T07:28:06.093Z,4.80
2022-10-12T07:30:33.908Z,4.13
2022-10-12T07:33:01.720Z,4.80
2022-10-12T07:35:29.464Z,3.90
2022-10-12T07:37:57.285Z,3.40
2022-10-12T07:40:26.968Z,4.10
2022-10-12T07:43:14.931Z,3.90
2022-10-12T07:45:42.393Z,3.73
2022-10-12T07:48:10.568Z,3.77
2022-10-12T07:50:38.372Z,4.03
2022-10-12T07:53:06.151Z,3.60
2022-10-12T07:55:35.205Z,3.67
2022-10-12T07:58:02.967Z,4.10
2022-10-12T08:00:32.075Z,3.87
2022-10-12T08:02:59.890Z,3.43
2022-10-12T08:05:28.013Z,3.33
2022-10-12T08:07:55.826Z,3.10
2022-10-12T08:10:23.772Z,3.37
2022-10-12T08:12:52.891Z,2.87
2022-10-12T08:15:20.804Z,3.77
2022-10-12T08:17:48.588Z,3.00
2022-10-12T08:20:16.360Z,3.40
2022-10-12T08:22:44.102Z,3.27
2022-10-12T08:25:11.856Z,2.93
2022-10-12T08:27:39.914Z,3.13
2022-10-12T08:30:10.508Z,3.40
2022-10-12T08:32:38.209Z,2.67
2022-10-12T08:35:06.714Z,2.77
2022-10-12T08:37:34.435Z,3.10
2022-10-12T08:40:03.617Z,2.73
2022-10-12T08:42:40.606Z,3.17
2022-10-12T08:45:39.394Z,3.20
2022-10-12T08:48:13.848Z,2.73
2022-10-12T08:50:47.083Z,3.37
2022-10-12T08:53:20.317Z,3.30
2022-10-12T08:55:48.267Z,3.50
2022-10-12T08:58:20.484Z,2.97
2022-10-12T09:00:53.212Z,2.83
2022-10-12T09:03:34.205Z,2.63
2022-10-12T09:06:11.765Z,2.93
2022-10-12T09:08:51.289Z,2.70
2022-10-12T09:11:37.438Z,2.43
2022-10-12T09:14:09.532Z,3.07
2022-10-12T09:16:43.920Z,3.13
2022-10-12T09:19:19.358Z,3.00
2022-10-12T09:21:48.729Z,3.30
2022-10-12T09:24:20.131Z,3.67
2022-10-12T09:26:51.760Z,3.23
2022-10-12T09:29:25.571Z,2.70
2022-10-12T09:32:16.811Z,3.00
2022-10-12T09:34:45.833Z,2.50
2022-10-12T09:37:19.010Z,2.97
2022-10-12T09:39:46.872Z,3.10
2022-10-12T09:42:14.750Z,2.60
2022-10-12T09:44:47.238Z,3.00
2022-10-12T09:47:28.338Z,2.73
2022-10-12T09:49:58.762Z,2.73
2022-10-12T09:52:30.548Z,2.40
2022-10-12T09:55:03.766Z,2.83
2022-10-12T09:57:36.990Z,3.17
2022-10-12T10:00:08.535Z,3.03
2022-10-12T10:02:48.838Z,2.93
2022-10-12T10:05:25.678Z,2.80
2022-10-12T10:07:53.774Z,2.97
2022-10-12T10:10:29.418Z,3.30
2022-10-12T10:13:01.285Z,2.50
2022-10-12T10:15:32.359Z,2.73
2022-10-12T10:18:03.786Z,2.70
2022-10-12T10:20:34.176Z,2.47
2022-10-12T10:23:04.631Z,2.60
2022-10-12T10:25:35.013Z,2.43
2022-10-12T10:28:23.063Z,2.27
2022-10-12T10:30:59.971Z,2.17
2022-10-12T10:33:30.105Z,2.67
2022-10-12T10:36:04.354Z,2.20
2022-10-12T10:38:34.097Z,2.60
2022-10-12T10:41:06.871Z,1.77
2022-10-12T10:43:35.762Z,2.20
2022-10-12T10:46:05.569Z,2.10
2022-10-12T10:48:51.240Z,2.07
2022-10-12T10:51:19.052Z,1.60
2022-10-12T10:53:48.935Z,2.60
2022-10-12T10:56:21.811Z,1.63
2022-10-12T10:58:52.597Z,1.90
2022-10-12T11:01:23.861Z,2.33
2022-10-12T11:03:57.651Z,2.60
2022-10-12T11:06:37.006Z,2.17
2022-10-12T11:09:08.552Z,2.40
2022-10-12T11:11:39.267Z,1.87
2022-10-12T11:14:15.558Z,1.57
2022-10-12T11:16:48.159Z,2.30
2022-10-12T11:19:27.350Z,1.63
2022-10-12T11:21:58.852Z,1.60
2022-10-12T11:24:33.478Z,2.40
2022-10-12T11:27:07.200Z,2.30
2022-10-12T11:29:36.556Z,1.90
2022-10-12T11:32:07.792Z,2.37
2022-10-12T11:34:46.461Z,2.17
2022-10-12T11:37:20.034Z,2.00
2022-10-12T11:39:53.542Z,1.73
2022-10-12T11:42:28.729Z,1.70
2022-10-12T11:44:56.452Z,1.70
2022-10-12T11:47:33.454Z,2.57
2022-10-12T11:50:06.352Z,2.27
2022-10-12T11:52:39.175Z,1.60
2022-10-12T11:55:26.240Z,1.83
2022-10-12T11:57:56.774Z,1.80
2022-10-12T12:00:30.909Z,2.10
2022-10-12T12:03:06.046Z,2.13
2022-10-12T12:05:35.212Z,2.93
2022-10-12T12:08:02.918Z,1.70
2022-10-12T12:10:53.565Z,1.90
2022-10-12T12:13:26.822Z,1.73
2022-10-12T12:16:33.624Z,2.20
2022-10-12T12:19:32.633Z,2.33
2022-10-12T12:22:36.801Z,2.03
2022-10-12T12:25:31.838Z,1.83
2022-10-12T12:28:06.543Z,2.00
2022-10-12T12:30:37.792Z,1.93
2022-10-12T12:33:26.570Z,2.50
2022-10-12T12:35:56.859Z,1.77
2022-10-12T12:38:29.004Z,2.10
2022-10-12T12:41:06.398Z,1.43
2022-10-12T12:43:58.645Z,1.50
2022-10-12T12:46:42.758Z,1.87
2022-10-12T12:49:27.371Z,2.17
2022-10-12T12:51:57.878Z,1.87
2022-10-12T12:54:28.103Z,1.77
2022-10-12T12:57:33.844Z,1.80
2022-10-12T13:00:14.294Z,1.70
2022-10-12T13:03:18.955Z,1.60
2022-10-12T13:06:44.256Z,1.77
2022-10-12T13:09:40.713Z,1.70
2022-10-12T13:12:38.754Z,1.80
2022-10-12T13:15:29.894Z,1.80
2022-10-12T13:18:34.558Z,1.60
2022-10-12T13:21:06.209Z,1.93
2022-10-12T13:23:34.951Z,1.60
2022-10-12T13:26:09.355Z,2.20
2022-10-12T13:28:42.424Z,1.77
2022-10-12T13:31:17.756Z,2.17
2022-10-12T13:33:50.483Z,1.70
2022-10-12T13:36:22.808Z,1.70
2022-10-12T13:38:55.913Z,1.70
2022-10-12T13:41:26.553Z,0.97
2022-10-12T13:43:56.537Z,1.77
2022-10-12T13:46:41.758Z,1.30
2022-10-12T13:49:18.813Z,1.93
2022-10-12T13:51:49.581Z,1.50
2022-10-12T13:54:19.440Z,1.43
2022-10-12T13:56:51.357Z,1.37
2022-10-12T13:59:22.341Z,1.40
2022-10-12T14:01:52.820Z,1.60
2022-10-12T14:04:20.823Z,1.77
2022-10-12T14:06:55.067Z,1.60
2022-10-12T14:09:24.720Z,1.33
2022-10-12T14:11:55.649Z,1.87
2022-10-12T14:14:29.608Z,1.83
2022-10-12T14:16:57.507Z,1.87
2022-10-12T14:19:35.539Z,1.53
2022-10-12T14:22:04.160Z,2.13
2022-10-12T14:24:32.190Z,1.50
2022-10-12T14:27:02.871Z,1.97
2022-10-12T14:29:36.695Z,1.83
2022-10-12T14:32:06.652Z,1.43
2022-10-12T14:34:46.518Z,2.03
2022-10-12T14:37:28.239Z,2.03
2022-10-12T14:40:00.433Z,2.10
2022-10-12T14:42:32.831Z,1.60
2022-10-12T14:45:01.146Z,1.43
2022-10-12T14:47:31.929Z,1.90
2022-10-12T14:50:01.396Z,1.97
2022-10-12T14:52:34.084Z,2.00
2022-10-12T14:55:01.840Z,1.63
2022-10-12T14:57:33.050Z,1.73
2022-10-12T15:00:00.962Z,1.87
2022-10-12T15:02:31.655Z,1.63
2022-10-12T15:05:00.407Z,1.30
2022-10-12T15:07:31.584Z,1.57
2022-10-12T15:09:59.884Z,1.80
2022-10-12T15:12:29.941Z,2.00
2022-10-12T15:15:02.007Z,1.70
2022-10-12T15:17:29.803Z,2.10
2022-10-12T15:19:57.791Z,1.63
2022-10-12T15:22:29.156Z,1.70
2022-10-12T15:24:57.066Z,1.90
2022-10-12T15:27:24.805Z,1.93
2022-10-12T15:29:52.619Z,1.83
2022-10-12T15:32:21.779Z,1.67
2022-10-12T15:34:50.760Z,1.70
2022-10-12T15:37:18.546Z,2.03
2022-10-12T15:39:46.693Z,1.90
2022-10-12T15:42:16.491Z,1.70
2022-10-12T15:44:44.489Z,2.10
2022-10-12T15:47:12.414Z,1.90
2022-10-12T15:49:42.106Z,3.30
2022-10-12T15:52:11.401Z,2.00
2022-10-12T15:54:39.302Z,2.50
2022-10-12T15:57:08.004Z,7.30
2022-10-12T15:59:36.077Z,4.80
2022-10-12T16:02:03.897Z,3.37
2022-10-12T16:04:31.651Z,2.87
2022-10-12T16:07:01.282Z,2.53
2022-10-12T16:09:29.035Z,2.90
2022-10-12T16:11:56.757Z,2.97
2022-10-12T16:14:24.481Z,2.90
2022-10-12T16:16:52.264Z,2.67
2022-10-12T16:19:20.035Z,2.80
2022-10-12T16:21:47.807Z,3.40
2022-10-12T16:24:17.762Z,2.90
2022-10-12T16:26:47.327Z,2.73
2022-10-12T16:29:15.036Z,2.40
2022-10-12T16:34:16.164Z,2.13
2022-10-12T16:36:43.986Z,1.90
2022-10-12T16:39:11.739Z,2.70
2022-10-12T16:41:40.821Z,2.67
2022-10-12T16:44:08.561Z,2.20
2022-10-12T16:46:36.986Z,2.40
2022-10-12T16:49:05.091Z,2.10
2022-10-12T16:51:32.855Z,2.50
2022-10-12T16:54:00.782Z,2.60
2022-10-12T16:56:28.536Z,2.57
2022-10-12T16:58:57.684Z,2.30
2022-10-12T17:01:25.490Z,2.53
2022-10-12T17:03:54.413Z,2.13
2022-10-12T17:06:22.206Z,2.40
2022-10-12T17:08:49.947Z,2.33
2022-10-12T17:11:17.951Z,2.50
2022-10-12T17:13:49.468Z,2.17
2022-10-12T17:16:37.029Z,2.80
2022-10-12T17:19:05.041Z,2.80
2022-10-12T17:21:32.812Z,2.87
2022-10-12T17:24:01.910Z,3.20
2022-10-12T17:26:30.510Z,2.83
2022-10-12T17:28:58.340Z,2.80
2022-10-12T17:31:28.639Z,2.83
2022-10-12T17:33:56.385Z,2.70
2022-10-12T17:36:27.985Z,4.00
2022-10-12T17:38:59.661Z,7.23
2022-10-12T17:41:29.049Z,5.60
2022-10-12T17:43:57.054Z,4.63
2022-10-12T17:46:25.085Z,3.70
2022-10-12T17:48:54.156Z,4.17
2022-10-12T17:51:21.874Z,3.77
2022-10-12T17:53:49.582Z,3.73
2022-10-12T17:56:17.823Z,3.73
2022-10-12T17:58:45.528Z,3.53
2022-10-12T18:01:15.517Z,3.43
2022-10-12T18:03:46.354Z,3.17
2022-10-12T18:06:17.258Z,3.70
2022-10-12T18:08:45.342Z,2.70
2022-10-12T18:11:13.406Z,2.97
2022-10-12T18:13:41.185Z,3.00
2022-10-12T18:16:11.375Z,3.63
2022-10-12T18:18:39.868Z,3.83
2022-10-12T18:21:08.621Z,3.10
2022-10-12T18:23:38.369Z,3.23
2022-10-12T18:26:08.049Z,3.13
2022-10-12T18:28:36.243Z,2.87
2022-10-12T18:31:04.627Z,3.77
2022-10-12T18:33:33.082Z,3.47
2022-10-12T18:36:04.311Z,3.37
2022-10-12T18:38:32.737Z,3.27
2022-10-12T18:41:05.842Z,3.53
2022-10-12T18:43:33.960Z,4.00
2022-10-12T18:46:05.158Z,3.80
2022-10-12T18:48:32.956Z,4.00
2022-10-12T18:51:05.306Z,3.80
2022-10-12T18:53:33.359Z,3.50
2022-10-12T18:56:03.056Z,4.07
2022-10-12T18:58:32.782Z,3.87
2022-10-12T19:01:03.359Z,3.77
2022-10-12T19:03:31.125Z,3.20
2022-10-12T19:06:05.363Z,4.30
2022-10-12T19:08:33.132Z,3.80
2022-10-12T19:11:00.937Z,4.17
2022-10-12T19:13:29.147Z,4.10
2022-10-12T19:15:58.302Z,3.90
2022-10-12T19:18:26.071Z,3.97
2022-10-12T19:20:53.833Z,4.23
2022-10-12T19:23:21.550Z,4.40
2022-10-12T19:25:49.263Z,4.73
2022-10-12T19:28:17.063Z,4.23
2022-10-12T19:30:44.835Z,4.20
2022-10-12T19:33:13.963Z,3.67
2022-10-12T19:35:41.684Z,3.97
2022-10-12T19:38:09.405Z,4.13
2022-10-12T19:40:37.893Z,4.30
2022-10-12T19:43:06.854Z,4.20
2022-10-12T19:45:39.951Z,4.77
2022-10-12T19:48:07.873Z,4.80
2022-10-12T19:50:37.039Z,4.17
2022-10-12T19:53:04.935Z,4.57
2022-10-12T19:55:34.056Z,4.60
2022-10-12T19:58:02.277Z,4.70
2022-10-12T20:00:30.352Z,4.83
2022-10-12T20:02:58.084Z,4.40
2022-10-12T20:05:25.948Z,4.60
2022-10-12T20:07:55.099Z,4.77
2022-10-12T20:10:22.913Z,4.90
2022-10-12T20:12:50.692Z,3.90
2022-10-12T20:15:18.495Z,3.67
2022-10-12T20:17:46.234Z,3.80
2022-10-12T20:20:13.971Z,4.23
2022-10-12T20:22:41.679Z,4.23
2022-10-12T20:25:10.835Z,4.40
2022-10-12T20:27:38.601Z,4.80
2022-10-12T20:30:07.762Z,5.30
2022-10-12T20:32:35.989Z,4.70
2022-10-12T20:35:04.010Z,5.43
2022-10-12T20:37:33.278Z,4.60
2022-10-12T20:40:01.045Z,4.87
2022-10-12T20:42:30.447Z,5.27
2022-10-12T20:44:58.179Z,5.50
2022-10-12T20:47:27.177Z,5.13
2022-10-12T20:49:55.032Z,4.90
2022-10-12T20:52:22.725Z,5.17
2022-10-12T20:54:52.043Z,5.23
2022-10-12T20:57:19.965Z,4.87
2022-10-12T20:59:49.234Z,5.40
2022-10-12T21:02:17.555Z,5.40
2022-10-12T21:04:45.832Z,5.90
2022-10-12T21:07:14.296Z,6.53
2022-10-12T21:09:42.510Z,6.63
2022-10-12T21:12:10.249Z,5.90
2022-10-12T21:14:38.027Z,5.87
2022-10-12T21:17:07.146Z,5.53
2022-10-12T21:19:34.955Z,5.57
2022-10-12T21:22:02.685Z,6.00
2022-10-12T21:24:30.588Z,5.80
2022-10-12T21:26:58.271Z,5.37
2022-10-12T21:29:26.251Z,5.20
2022-10-12T21:31:53.938Z,5.43
2022-10-12T21:34:23.676Z,5.10
2022-10-12T21:36:51.394Z,5.40
2022-10-12T21:39:19.125Z,5.77
2022-10-12T21:41:48.524Z,5.33
2022-10-12T21:44:16.323Z,5.70
2022-10-12T21:46:44.064Z,4.83
2022-10-12T21:49:12.443Z,5.70
2022-10-12T21:51:41.605Z,5.43
2022-10-12T21:54:09.307Z,6.33
2022-10-12T21:56:37.813Z,5.83
2022-10-12T21:59:06.711Z,5.17
2022-10-12T22:01:36.484Z,6.30
2022-10-12T22:04:06.450Z,5.40
2022-10-12T22:06:34.823Z,5.10
2022-10-12T22:09:06.841Z,5.13
2022-10-12T22:11:36.008Z,5.00
2022-10-12T22:14:06.507Z,5.07
2022-10-12T22:16:35.044Z,4.70
2022-10-12T22:19:04.389Z,5.30
2022-10-12T22:21:32.468Z,5.00
2022-10-12T22:24:01.958Z,5.47
2022-10-12T22:26:31.755Z,5.10
2022-10-12T22:29:01.040Z,4.97
2022-10-12T22:31:28.831Z,5.20
2022-10-12T22:33:57.220Z,4.43
2022-10-12T22:36:24.999Z,5.00
2022-10-12T22:38:52.973Z,4.83
2022-10-12T22:41:21.796Z,5.03
2022-10-12T22:43:53.124Z,4.80
2022-10-12T22:46:22.430Z,4.63
2022-10-12T22:48:50.754Z,4.70
2022-10-12T22:51:21.786Z,4.80
2022-10-12T22:53:50.307Z,4.97
2022-10-12T22:56:19.341Z,5.10
2022-10-12T22:58:48.797Z,4.80
2022-10-12T23:01:18.596Z,5.10
2022-10-12T23:03:46.492Z,4.83
2022-10-12T23:06:15.181Z,4.53
2022-10-12T23:08:42.998Z,4.70
2022-10-12T23:11:12.991Z,4.40
2022-10-12T23:13:42.449Z,4.93
2022-10-12T23:16:12.966Z,4.87
2022-10-12T23:18:42.275Z,5.37
2022-10-12T23:21:11.711Z,5.10
2022-10-12T23:23:40.675Z,4.80
2022-10-12T23:26:11.598Z,4.40
2022-10-12T23:28:39.653Z,5.00
2022-10-12T23:31:08.846Z,4.53
2022-10-12T23:33:36.783Z,4.73
2022-10-12T23:36:08.150Z,4.87
2022-10-12T23:38:37.120Z,5.10
2022-10-12T23:41:05.373Z,4.87
2022-10-12T23:43:33.525Z,4.67
2022-10-12T23:46:01.397Z,4.40
2022-10-12T23:48:29.360Z,4.23
2022-10-12T23:50:57.097Z,4.77
2022-10-12T23:53:26.522Z,4.60
2022-10-12T23:55:55.208Z,4.77
2022-10-12T23:58:23.519Z,4.83
